Time;durP1;ratioP1;P1;durP2;ratioP2;P2;SDS_P1;SDS_P2;PMS_P1;PMS_P2;Temp;Humidity;BMP_temperature;BMP_pressure;BME280_temperature;BME280_humidity;BME280_pressure;Samples;Min_cycle;Max_cycle;Signal;HPM_P1;HPM_P2
2022/01/16 00:16:52;;;;;;;2.10;1.40;;;;;;;0.14;96.81;100102.38;31321287;28;20045;-75
2022/01/16 00:31:54;;;;;;;2.80;1.90;;;;;;;0.06;95.97;100111.34;31297249;28;20077;-74
2022/01/16 00:46:57;;;;;;;3.17;1.77;;;;;;;-0.02;94.48;100104.31;31308959;28;20053;-75
2022/01/16 01:02:00;;;;;;;3.00;1.57;;;;;;;-0.12;93.17;100097.59;31301104;28;20054;-75
2022/01/16 01:17:03;;;;;;;1.50;1.40;;;;;;;-0.13;93.28;100156.63;31308744;28;20108;-75
2022/01/16 01:32:06;;;;;;;7.90;1.80;;;;;;;0.03;92.43;100165.41;31286290;28;20075;-76
2022/01/16 02:02:37;;;;;;;1.47;1.23;;;;;;;0.35;91.07;100203.53;31270495;28;20052;-74
2022/01/16 02:48:05;;;;;;;2.80;1.20;;;;;;;0.25;86.00;100228.84;31297558;28;20056;-77
2022/01/16 03:03:08;;;;;;;2.53;2.10;;;;;;;0.33;82.02;100273.31;31285457;28;20084;-75
2022/01/16 03:33:15;;;;;;;5.27;1.67;;;;;;;0.65;87.70;100303.47;31306811;28;20803;-75
2022/01/16 03:48:17;;;;;;;2.13;1.60;;;;;;;0.59;88.68;100325.44;31293830;28;20048;-76
2022/01/16 04:03:19;;;;;;;3.60;1.47;;;;;;;0.68;86.72;100323.38;31310665;28;20052;-77
2022/01/16 04:18:20;;;;;;;1.63;1.40;;;;;;;0.77;86.47;100348.00;31285816;28;20179;-76
2022/01/16 04:33:22;;;;;;;3.20;1.33;;;;;;;0.74;87.04;100367.41;31293189;28;20071;-78
2022/01/16 04:48:25;;;;;;;3.10;1.67;;;;;;;0.73;86.46;100371.19;31298511;28;20051;-76
2022/01/16 05:03:29;;;;;;;2.33;1.67;;;;;;;0.61;86.28;100412.16;31313723;28;20067;-77
2022/01/16 05:18:31;;;;;;;2.17;1.60;;;;;;;0.68;86.89;100433.72;31319067;28;20056;-78
2022/01/16 05:33:33;;;;;;;3.13;1.80;;;;;;;0.51;87.49;100457.28;31310042;28;20522;-75
2022/01/16 05:48:35;;;;;;;5.57;1.70;;;;;;;0.65;88.16;100446.97;31292758;28;20041;-77
2022/01/16 06:03:36;;;;;;;3.17;1.90;;;;;;;0.65;87.88;100452.31;31298510;28;20153;-78
2022/01/16 06:18:38;;;;;;;2.00;1.30;;;;;;;0.72;87.63;100468.50;31321170;28;20049;-76
2022/01/16 06:33:40;;;;;;;4.17;1.80;;;;;;;0.68;87.74;100479.13;31293512;28;20049;-76
2022/01/16 06:48:42;;;;;;;2.53;1.63;;;;;;;0.74;87.87;100498.34;31305364;28;20041;-76
2022/01/16 07:03:44;;;;;;;4.73;1.77;;;;;;;0.92;88.37;100510.28;31306922;28;20052;-76
2022/01/16 07:18:46;;;;;;;1.67;1.40;;;;;;;1.13;88.17;100511.94;31329729;28;20049;-75
2022/01/16 07:33:48;;;;;;;2.63;1.77;;;;;;;1.20;86.14;100552.22;31326560;28;20067;-76
2022/01/16 07:48:50;;;;;;;2.60;2.40;;;;;;;1.52;84.85;100564.50;31298204;28;20045;-76
2022/01/16 08:03:52;;;;;;;2.33;1.70;;;;;;;1.71;83.19;100577.94;31301734;28;20053;-77
2022/01/16 08:18:54;;;;;;;3.07;1.40;;;;;;;1.79;82.13;100613.69;31305924;28;20049;-78
2022/01/16 08:33:56;;;;;;;5.83;1.30;;;;;;;2.14;79.14;100621.78;31314253;28;20061;-75
2022/01/16 08:48:58;;;;;;;3.03;1.57;;;;;;;2.08;79.59;100633.13;31295355;28;20794;-76
2022/01/16 09:04:00;;;;;;;3.70;1.70;;;;;;;2.14;79.67;100651.22;31299304;28;20748;-76
2022/01/16 09:19:02;;;;;;;2.07;1.43;;;;;;;2.26;77.24;100624.34;31297729;28;20053;-78
2022/01/16 09:34:04;;;;;;;2.37;1.37;;;;;;;2.35;75.44;100608.88;31292512;28;20057;-75
2022/01/16 09:49:06;;;;;;;1.53;1.40;;;;;;;2.61;74.63;100624.31;31331664;28;20064;-75
2022/01/16 10:04:40;;;;;;;1.93;1.20;;;;;;;3.05;71.24;100589.97;31328033;28;20056;-75
2022/01/16 10:19:43;;;;;;;8.67;1.40;;;;;;;3.41;70.00;100590.59;31291874;28;20060;-74
2022/01/16 10:34:49;;;;;;;3.33;1.60;;;;;;;3.20;68.66;100590.22;31314548;28;20119;-75
2022/01/16 10:49:59;;;;;;;1.40;1.00;;;;;;;2.61;77.55;100613.59;31318913;28;20605;-74
2022/01/16 11:05:12;;;;;;;2.13;1.40;;;;;;;3.04;78.56;100601.84;31316894;28;20053;-75
2022/01/16 11:20:15;;;;;;;3.47;1.20;;;;;;;4.27;70.47;100596.13;31315632;28;20087;-74
2022/01/16 11:35:19;;;;;;;2.60;1.07;;;;;;;3.90;74.34;100600.59;31299396;28;20052;-73
2022/01/16 11:50:34;;;;;;;2.10;1.10;;;;;;;3.58;70.84;100595.47;31288807;28;20058;-73
2022/01/16 12:05:35;;;;;;;2.50;1.37;;;;;;;6.72;60.76;100584.06;31308305;28;20092;-72
2022/01/16 12:20:37;;;;;;;2.37;1.70;;;;;;;9.00;54.08;100593.53;31304987;28;20487;-72
2022/01/16 12:35:39;;;;;;;2.77;1.40;;;;;;;4.70;67.54;100626.28;31306364;28;20048;-71
2022/01/16 12:50:41;;;;;;;2.70;1.30;;;;;;;2.72;72.56;100635.28;31337600;28;20041;-71
2022/01/16 13:05:43;;;;;;;3.20;2.23;;;;;;;2.72;75.22;100652.13;31311874;28;20072;-71
2022/01/16 13:20:47;;;;;;;5.10;2.33;;;;;;;2.48;74.19;100678.41;31321906;28;20490;-70
2022/01/16 13:35:50;;;;;;;6.47;2.43;;;;;;;2.29;74.29;100690.63;31327841;28;20137;-73
2022/01/16 13:50:55;;;;;;;5.93;2.50;;;;;;;1.94;76.50;100693.22;31314763;28;20056;-72
2022/01/16 14:06:05;;;;;;;5.70;2.27;;;;;;;1.62;75.92;100692.44;31325553;28;20121;-73
2022/01/16 14:36:27;;;;;;;4.63;2.53;;;;;;;1.29;78.76;100689.25;31325756;28;20554;-72
2022/01/16 14:51:29;;;;;;;4.03;2.57;;;;;;;1.27;79.67;100697.63;31322823;28;20132;-73
2022/01/16 15:06:36;;;;;;;4.03;2.30;;;;;;;1.11;81.21;100702.16;31317681;28;20076;-72
2022/01/16 15:21:45;;;;;;;3.87;2.30;;;;;;;1.10;83.45;100702.47;31315856;28;20497;-72
2022/01/16 15:36:49;;;;;;;3.60;2.10;;;;;;;1.30;83.37;100720.22;31285357;28;20141;-71
2022/01/16 15:51:51;;;;;;;2.27;1.80;;;;;;;1.45;83.47;100714.16;31306205;28;20471;-72
2022/01/16 16:06:58;;;;;;;5.70;2.63;;;;;;;1.47;84.19;100727.97;31283203;28;20758;-70
2022/01/16 16:22:00;;;;;;;3.93;2.47;;;;;;;1.47;84.23;100738.66;31326248;28;20063;-71
2022/01/16 16:37:02;;;;;;;5.20;2.30;;;;;;;1.48;83.67;100761.63;31280871;28;20514;-72
2022/01/16 16:52:05;;;;;;;5.37;2.70;;;;;;;1.40;83.55;100748.41;31297563;28;20056;-72
2022/01/16 17:07:07;;;;;;;4.13;2.17;;;;;;;1.41;83.23;100744.63;31313087;28;20051;-72
2022/01/16 17:22:12;;;;;;;4.77;2.90;;;;;;;1.26;83.42;100751.44;31279054;28;20045;-73
2022/01/16 17:37:16;;;;;;;6.45;3.40;;;;;;;1.31;83.17;100745.88;31312836;28;20075;-72
2022/01/16 17:52:19;;;;;;;6.30;3.07;;;;;;;1.25;84.04;100737.31;31303381;28;20414;-73
2022/01/16 18:07:21;;;;;;;6.00;2.70;;;;;;;1.37;84.44;100747.19;31311541;28;20049;-71
2022/01/16 18:22:24;;;;;;;6.10;2.30;;;;;;;1.28;84.33;100735.84;31332277;28;20057;-72
2022/01/16 18:37:28;;;;;;;4.70;2.20;;;;;;;1.13;84.83;100744.59;31305311;28;20055;-73
2022/01/16 18:52:30;;;;;;;4.97;2.37;;;;;;;1.22;84.28;100753.25;31302964;28;20045;-75
2022/01/16 19:07:32;;;;;;;12.17;4.97;;;;;;;1.24;82.81;100759.03;31342799;28;20494;-74
2022/01/16 19:22:37;;;;;;;7.17;3.70;;;;;;;1.31;82.21;100767.25;31333258;28;20053;-69
2022/01/16 19:37:40;;;;;;;26.70;6.53;;;;;;;1.28;82.89;100781.31;31324887;28;20050;-71
2022/01/16 19:52:43;;;;;;;31.40;8.67;;;;;;;1.25;83.03;100773.97;31289858;28;20053;-74
2022/01/16 20:07:45;;;;;;;14.13;6.07;;;;;;;1.18;81.56;100763.09;31319379;28;20049;-77
2022/01/16 20:22:47;;;;;;;5.60;4.00;;;;;;;1.10;80.02;100772.78;31322747;28;20067;-74
2022/01/16 20:37:52;;;;;;;6.17;3.43;;;;;;;1.02;79.06;100777.13;31351406;28;20050;-73
2022/01/16 20:52:53;;;;;;;7.00;3.53;;;;;;;1.02;77.59;100774.47;31308259;28;20052;-73
2022/01/16 21:07:56;;;;;;;5.00;2.90;;;;;;;1.09;77.09;100778.47;31333887;28;20053;-75
2022/01/16 21:22:58;;;;;;;9.00;3.23;;;;;;;0.99;77.89;100753.75;31317540;28;20107;-74
2022/01/16 21:38:01;;;;;;;3.73;2.70;;;;;;;0.86;78.58;100746.88;31313178;28;20045;-74
2022/01/16 21:53:02;;;;;;;6.23;2.13;;;;;;;0.74;79.45;100738.88;31332554;28;20049;-74
2022/01/16 22:08:05;;;;;;;4.77;2.83;;;;;;;0.58;79.15;100725.41;31330596;28;20049;-74
2022/01/16 22:23:07;;;;;;;8.00;3.40;;;;;;;0.54;80.13;100699.69;31325333;28;20065;-76
2022/01/16 22:38:09;;;;;;;7.37;4.07;;;;;;;0.48;81.19;100675.09;31339268;28;20437;-74
2022/01/16 22:53:11;;;;;;;10.87;4.83;;;;;;;0.39;82.03;100665.66;31328677;28;20052;-76
2022/01/16 23:08:12;;;;;;;8.00;4.30;;;;;;;0.48;81.33;100655.63;31324853;28;20067;-75
2022/01/16 23:23:15;;;;;;;12.90;3.90;;;;;;;0.48;81.17;100639.59;31354138;28;20636;-75
2022/01/16 23:38:19;;;;;;;9.50;4.07;;;;;;;0.40;81.71;100633.28;31336395;28;20128;-74
2022/01/16 23:53:21;;;;;;;11.73;4.77;;;;;;;0.39;81.74;100620.25;31323957;28;20136;-75
